Time;durP1;ratioP1;P1;durP2;ratioP2;P2;SDS_P1;SDS_P2;PMS_P1;PMS_P2;Temp;Humidity;BMP_temperature;BMP_pressure;BME280_temperature;BME280_humidity;BME280_pressure;Samples;Min_cycle;Max_cycle;Signal;HPM_P1;HPM_P2
2022/07/14 00:00:22;;;;;;;2.35;1.30;;;23.20;54.80;;;22.65;41.25;97641.81;5031968;28;20421;-74
2022/07/14 00:02:50;;;;;;;2.63;1.23;;;23.20;54.80;;;22.65;41.42;97637.22;5032609;28;20429;-74
2022/07/14 00:05:16;;;;;;;4.07;1.20;;;23.20;55.00;;;22.60;41.44;97629.31;5014667;28;20403;-74
2022/07/14 00:07:41;;;;;;;3.30;1.30;;;23.20;55.10;;;22.60;41.26;97621.22;5032724;28;20399;-75
2022/07/14 00:10:08;;;;;;;2.17;1.10;;;23.20;54.80;;;22.57;41.70;97621.84;5031715;28;20403;-75
2022/07/14 00:12:35;;;;;;;1.65;1.00;;;23.10;55.20;;;22.52;42.00;97619.34;5032238;28;20897;-75
2022/07/14 00:15:00;;;;;;;2.15;1.05;;;23.10;55.50;;;22.48;42.06;97628.41;5032382;28;20422;-75
2022/07/14 00:17:26;;;;;;;4.72;1.10;;;23.00;55.50;;;22.45;41.70;97621.72;5032379;28;20464;-73
2022/07/14 00:19:54;;;;;;;4.10;1.17;;;23.00;55.40;;;22.49;41.08;97625.34;5031712;28;20407;-74
2022/07/14 00:22:20;;;;;;;3.65;1.15;;;23.00;54.90;;;22.50;40.91;97618.06;5032074;28;20411;-74
2022/07/14 00:24:46;;;;;;;5.45;1.35;;;23.00;54.60;;;22.49;40.60;97616.47;5032164;28;20422;-73
2022/07/14 00:27:12;;;;;;;3.10;1.10;;;23.00;54.20;;;22.52;39.71;97619.34;5026513;28;20405;-75
2022/07/14 00:29:38;;;;;;;1.23;0.93;;;23.00;53.50;;;22.54;40.09;97619.81;5011701;28;20416;-74
2022/07/14 00:32:06;;;;;;;2.35;1.20;;;23.10;53.80;;;22.54;40.53;97611.72;5022515;28;20917;-74
2022/07/14 00:34:32;;;;;;;5.05;1.40;;;23.10;54.10;;;22.51;39.24;97609.66;5023714;28;20427;-75
2022/07/14 00:37:00;;;;;;;1.73;1.10;;;23.10;53.20;;;22.51;39.98;97600.75;5022087;28;20460;-75
2022/07/14 00:39:26;;;;;;;2.35;1.08;;;23.00;53.50;;;22.44;40.23;97600.47;5024903;28;20405;-75
2022/07/14 00:41:52;;;;;;;2.90;1.15;;;23.00;53.80;;;22.38;40.36;97603.34;5031734;28;20900;-75
2022/07/14 00:44:18;;;;;;;2.15;1.02;;;23.00;54.10;;;22.34;39.37;97597.00;5031723;28;21015;-75
2022/07/14 00:46:44;;;;;;;5.35;1.15;;;22.90;53.00;;;22.34;37.68;97599.69;5031887;28;20411;-74
2022/07/14 00:49:10;;;;;;;2.60;1.10;;;22.90;51.90;;;22.36;37.35;97604.78;5031322;28;20399;-75
2022/07/14 00:51:36;;;;;;;1.90;1.08;;;22.90;50.80;;;22.34;37.42;97597.00;5031626;28;20912;-75
2022/07/14 00:54:03;;;;;;;1.90;1.20;;;22.90;51.30;;;22.32;36.85;97593.84;5031572;28;20456;-74
2022/07/14 00:56:29;;;;;;;2.40;1.20;;;22.90;50.80;;;22.30;37.51;97601.47;5031767;28;20399;-75
2022/07/14 00:58:55;;;;;;;1.80;1.00;;;22.90;50.90;;;22.26;36.51;97605.13;5031021;28;20457;-74
2022/07/14 01:01:21;;;;;;;1.88;0.98;;;22.80;50.50;;;22.24;37.13;97604.66;5013456;28;20932;-75
2022/07/14 01:03:47;;;;;;;1.30;0.90;;;22.80;50.40;;;22.15;38.45;97610.06;5031442;28;20418;-75
2022/07/14 01:06:13;;;;;;;1.85;1.10;;;22.80;51.70;;;22.04;39.66;97614.19;5031494;28;20851;-75
2022/07/14 01:08:39;;;;;;;2.53;0.93;;;22.70;52.90;;;21.92;40.20;97614.03;5030832;28;20413;-75
2022/07/14 01:11:08;;;;;;;1.70;0.95;;;22.50;53.40;;;21.81;40.73;97627.03;5031311;28;20399;-75
2022/07/14 01:13:35;;;;;;;2.70;1.17;;;22.50;53.90;;;21.73;41.21;97630.50;5031154;28;20410;-75
2022/07/14 01:16:02;;;;;;;2.10;1.08;;;22.40;54.50;;;21.62;41.42;97621.97;5031301;28;20483;-75
2022/07/14 01:18:28;;;;;;;1.58;0.95;;;22.30;54.80;;;21.50;42.05;97621.78;5030845;28;20403;-74
2022/07/14 01:20:54;;;;;;;1.85;1.00;;;22.20;55.40;;;21.40;42.86;97621.31;5030987;28;20439;-75
2022/07/14 01:23:21;;;;;;;2.97;0.93;;;22.10;56.10;;;21.24;42.96;97613.69;5030979;28;20453;-74
2022/07/14 01:25:47;;;;;;;1.80;1.00;;;22.00;56.30;;;21.14;43.27;97618.53;5031140;28;20403;-74
2022/07/14 01:28:13;;;;;;;2.38;1.23;;;21.80;56.70;;;20.97;43.55;97619.31;5030640;28;20884;-74
2022/07/14 01:30:39;;;;;;;1.20;1.00;;;21.70;56.80;;;20.82;43.93;97617.03;5030795;28;20415;-74
2022/07/14 01:33:05;;;;;;;2.92;0.95;;;21.60;57.20;;;20.68;44.52;97621.72;5031040;28;20405;-74
2022/07/14 01:35:31;;;;;;;1.75;1.25;;;21.40;57.60;;;20.63;45.17;97614.56;5030920;28;20426;-74
2022/07/14 01:37:57;;;;;;;1.70;1.13;;;21.40;58.30;;;20.53;45.71;97612.16;5030922;28;20438;-75
2022/07/14 01:40:24;;;;;;;1.88;1.17;;;21.30;58.80;;;20.48;45.66;97604.22;5030047;28;20903;-74
2022/07/14 01:42:50;;;;;;;1.23;1.10;;;21.20;58.90;;;20.40;45.45;97607.66;5030602;28;20963;-75
2022/07/14 01:45:16;;;;;;;3.17;1.20;;;21.10;58.90;;;20.33;45.82;97604.59;5030651;28;20415;-75
2022/07/14 01:47:42;;;;;;;3.57;1.00;;;21.10;59.10;;;20.21;46.16;97602.50;5030810;28;20433;-75
2022/07/14 01:50:09;;;;;;;2.10;1.10;;;21.00;59.40;;;20.15;46.92;97602.94;5029715;28;20540;-75
2022/07/14 01:52:35;;;;;;;1.50;1.00;;;20.90;60.20;;;20.07;47.65;97609.84;5030265;28;20395;-75
2022/07/14 01:55:01;;;;;;;1.60;1.10;;;20.80;60.80;;;19.98;48.02;97603.59;5030606;28;20403;-75
2022/07/14 01:57:28;;;;;;;1.98;1.17;;;20.70;61.30;;;19.95;48.32;97599.63;5013060;28;20529;-75
2022/07/14 01:59:54;;;;;;;2.10;1.00;;;20.70;61.70;;;19.89;48.20;97592.00;5029897;28;20453;-74
2022/07/14 02:02:20;;;;;;;1.75;1.20;;;20.70;61.70;;;19.83;48.30;97591.34;5030163;28;20402;-74
2022/07/14 02:04:47;;;;;;;2.72;1.30;;;20.60;61.90;;;19.81;48.51;97588.16;5030392;28;20509;-75
2022/07/14 02:07:13;;;;;;;2.65;1.15;;;20.50;62.10;;;19.70;49.06;97590.28;5030451;28;20973;-74
2022/07/14 02:12:23;;;;;;;1.10;0.98;;;20.40;63.10;;;19.56;49.62;97588.75;5030210;28;20483;-75
2022/07/14 02:14:51;;;;;;;2.55;1.17;;;20.30;63.50;;;19.50;49.60;97592.66;5030439;28;20489;-75
2022/07/14 02:17:17;;;;;;;2.88;1.40;;;20.30;63.40;;;19.51;49.33;97588.88;5030331;28;20399;-75
2022/07/14 02:19:43;;;;;;;2.43;1.33;;;20.20;63.40;;;19.48;48.89;97570.66;5029764;28;20406;-75
2022/07/14 02:22:08;;;;;;;1.83;1.30;;;20.20;63.10;;;19.39;49.20;97583.22;5030090;28;20403;-75
2022/07/14 02:24:36;;;;;;;3.00;1.37;;;20.10;63.00;;;19.24;49.34;97579.78;5012289;28;20509;-75
2022/07/14 02:27:02;;;;;;;3.15;1.42;;;20.00;63.20;;;19.19;49.17;97577.19;5030138;28;20730;-74
2022/07/14 02:29:28;;;;;;;3.65;1.40;;;20.00;63.30;;;19.11;49.23;97577.88;5029529;28;20410;-75
2022/07/14 02:31:55;;;;;;;1.83;1.27;;;19.90;63.10;;;19.05;49.23;97578.31;5029823;28;20699;-75
2022/07/14 02:34:21;;;;;;;1.77;1.23;;;19.90;63.20;;;19.03;49.48;97572.44;5029591;28;20531;-75
2022/07/14 02:36:47;;;;;;;1.80;1.20;;;19.80;63.50;;;19.02;50.27;97571.63;5030101;28;20486;-75
2022/07/14 02:39:14;;;;;;;2.63;1.33;;;19.80;64.20;;;19.03;50.29;97583.16;5029332;28;20438;-75
2022/07/14 02:41:40;;;;;;;2.92;1.27;;;19.80;64.50;;;18.95;49.99;97571.25;5029866;28;20402;-74
2022/07/14 02:44:06;;;;;;;2.00;1.30;;;19.70;64.20;;;18.93;50.01;97570.78;5029786;28;20422;-74
2022/07/14 02:46:32;;;;;;;2.57;1.10;;;19.70;64.20;;;18.93;49.99;97576.16;5029972;28;20509;-74
2022/07/14 02:48:59;;;;;;;3.20;1.60;;;19.70;64.20;;;18.87;49.70;97575.44;5029236;28;20403;-74
2022/07/14 02:51:25;;;;;;;1.40;1.20;;;19.60;64.00;;;18.81;49.79;97567.78;5029719;28;20801;-74
2022/07/14 02:53:51;;;;;;;1.60;1.23;;;19.60;64.10;;;18.78;49.87;97565.72;5029907;28;20395;-74
2022/07/14 02:56:17;;;;;;;2.70;1.35;;;19.50;64.00;;;18.73;50.04;97563.13;5029910;28;20411;-74
2022/07/14 02:58:43;;;;;;;2.67;1.20;;;19.50;64.20;;;18.67;50.29;97569.69;5029159;28;20409;-74
2022/07/14 03:01:09;;;;;;;1.65;1.30;;;19.50;64.60;;;18.65;50.74;97572.66;5029627;28;20836;-74
2022/07/14 03:03:36;;;;;;;2.15;1.38;;;19.50;65.00;;;18.62;50.68;97573.28;5031434;28;20494;-74
2022/07/14 03:06:10;;;;;;;1.80;1.40;;;19.40;65.00;;;18.57;50.89;97581.41;5033914;28;20493;-74
2022/07/14 03:08:36;;;;;;;2.10;1.20;;;19.30;65.20;;;18.55;50.60;97587.06;5033303;28;20477;-75
2022/07/14 03:11:02;;;;;;;2.90;1.40;;;19.30;65.10;;;18.49;50.50;97579.41;5033487;28;20411;-74
2022/07/14 03:13:28;;;;;;;1.45;1.20;;;19.30;65.00;;;18.45;50.64;97581.06;5033647;28;20909;-75
2022/07/14 03:15:54;;;;;;;1.80;1.17;;;19.20;65.00;;;18.44;50.76;97576.81;5033771;28;20437;-75
2022/07/14 03:18:20;;;;;;;2.83;1.40;;;19.20;65.00;;;18.37;50.82;97571.84;5033187;28;21097;-75
2022/07/14 03:20:46;;;;;;;2.37;1.50;;;19.20;65.20;;;18.31;50.90;97566.88;5033433;28;20556;-74
2022/07/14 03:23:13;;;;;;;1.70;1.33;;;19.10;65.20;;;18.27;50.86;97566.66;5033447;28;20489;-74
2022/07/14 03:25:42;;;;;;;2.85;1.42;;;19.10;65.40;;;18.26;51.05;97566.97;5033496;28;20403;-74
2022/07/14 03:28:08;;;;;;;1.55;1.23;;;19.10;65.50;;;18.20;51.39;97568.94;5032950;28;20403;-74
2022/07/14 03:30:34;;;;;;;3.08;1.45;;;19.00;65.70;;;18.19;51.33;97562.00;5015317;28;20762;-73
2022/07/14 03:32:59;;;;;;;2.95;1.33;;;19.00;65.70;;;18.21;51.26;97562.47;5033241;28;20421;-73
2022/07/14 03:35:26;;;;;;;2.75;1.40;;;19.00;65.90;;;18.21;51.22;97567.84;5033353;28;20402;-73
2022/07/14 03:37:54;;;;;;;1.30;1.20;;;19.00;65.60;;;18.23;51.03;97567.56;5015586;28;20765;-75
2022/07/14 03:40:21;;;;;;;1.83;1.33;;;19.00;65.60;;;18.22;51.55;97566.75;5032432;28;20410;-75
2022/07/14 03:42:47;;;;;;;2.65;1.40;;;19.00;66.20;;;18.16;51.54;97567.94;5050723;22;20417;-81
2022/07/14 03:45:13;;;;;;;2.92;1.70;;;19.00;66.20;;;18.18;51.18;97563.09;5052902;28;20435;-81
2022/07/14 03:47:42;;;;;;;1.47;1.27;;;18.90;66.10;;;18.19;51.15;97568.13;5043553;28;20535;-81
2022/07/14 03:50:11;;;;;;;1.38;1.15;;;18.90;65.90;;;18.23;50.72;97575.59;5045603;28;20429;-79
2022/07/14 03:52:37;;;;;;;1.75;1.20;;;19.00;65.60;;;18.30;49.91;97573.31;5043869;28;20399;-81
2022/07/14 03:55:05;;;;;;;2.33;1.20;;;19.00;64.90;;;18.37;49.13;97563.00;5027375;28;20420;-83
2022/07/14 03:57:32;;;;;;;3.10;1.30;;;19.00;63.90;;;18.50;47.97;97567.56;5027287;28;20487;-81
2022/07/14 03:59:58;;;;;;;3.05;1.30;;;19.10;62.70;;;18.60;47.56;97559.38;5019746;28;20898;-81
2022/07/14 04:02:24;;;;;;;2.17;1.10;;;19.20;62.30;;;18.65;47.14;97556.56;5018088;28;20414;-81
2022/07/14 04:04:50;;;;;;;2.28;1.27;;;19.40;61.40;;;18.78;46.85;97558.47;5022316;28;20504;-80
2022/07/14 04:07:16;;;;;;;2.80;1.10;;;19.40;61.20;;;18.88;47.62;97557.47;5021825;28;20403;-81
2022/07/14 04:09:42;;;;;;;1.52;1.25;;;19.50;61.80;;;18.97;47.14;97552.19;5022862;28;20486;-81
2022/07/14 04:12:08;;;;;;;1.67;1.10;;;19.60;61.60;;;19.02;46.99;97555.53;5021700;28;20489;-81
2022/07/14 04:14:35;;;;;;;1.30;1.00;;;19.70;61.30;;;19.10;47.19;97559.41;5021501;28;20437;-79
2022/07/14 04:17:01;;;;;;;1.25;1.02;;;19.70;61.40;;;19.12;47.43;97557.22;5023665;28;20399;-81
2022/07/14 04:19:27;;;;;;;2.60;1.10;;;19.80;61.40;;;19.15;48.12;97557.44;5040328;28;20416;-80
2022/07/14 04:21:53;;;;;;;4.00;1.63;;;19.80;62.30;;;19.24;46.85;97562.88;5044612;28;20399;-79
2022/07/14 04:24:19;;;;;;;2.50;1.60;;;19.90;61.20;;;19.21;47.52;97572.31;5036628;28;20414;-80
2022/07/14 04:26:44;;;;;;;3.08;1.63;;;19.90;61.80;;;19.19;48.21;97569.13;5029364;28;20476;-79
2022/07/14 04:29:10;;;;;;;3.45;2.10;;;19.90;62.30;;;19.17;48.84;97573.22;5034593;28;20415;-79
2022/07/14 04:31:38;;;;;;;4.35;1.90;;;19.80;62.80;;;19.10;49.34;97575.50;5034687;28;21156;-79
2022/07/14 04:34:04;;;;;;;3.53;1.98;;;19.80;63.60;;;19.07;49.32;97576.13;5033067;28;20463;-79
2022/07/14 04:36:30;;;;;;;3.63;2.10;;;19.70;63.50;;;19.03;49.24;97577.81;5033103;28;20399;-79
2022/07/14 04:38:59;;;;;;;5.30;2.13;;;19.70;63.80;;;18.97;49.91;97581.69;5033970;28;20414;-79
2022/07/14 04:41:25;;;;;;;5.60;2.25;;;19.70;64.20;;;18.98;50.05;97583.28;5032710;28;20482;-79
2022/07/14 04:43:52;;;;;;;4.18;1.90;;;19.70;64.40;;;18.98;50.20;97581.41;5033820;28;20462;-79
2022/07/14 04:46:18;;;;;;;4.20;2.42;;;19.70;64.80;;;19.00;49.92;97575.75;5031888;28;20411;-81
2022/07/14 04:54:14;;;;;;;3.92;1.83;;;19.70;64.90;;;19.15;50.55;97586.94;5032032;28;20394;-79
2022/07/14 04:56:40;;;;;;;4.70;2.10;;;19.80;65.30;;;19.21;50.85;97591.09;5031558;28;20406;-78
2022/07/14 04:59:06;;;;;;;3.05;1.63;;;19.80;65.70;;;19.27;51.07;97586.41;5030749;28;20501;-78
2022/07/14 05:01:32;;;;;;;4.47;1.80;;;19.90;65.90;;;19.34;51.47;97595.63;5031270;28;20426;-80
2022/07/14 05:03:59;;;;;;;5.30;2.20;;;20.00;66.50;;;19.42;52.38;97594.13;5031277;28;20445;-79
2022/07/14 05:06:25;;;;;;;3.53;2.00;;;20.10;67.20;;;19.50;52.44;97593.44;5039732;28;20404;-80
2022/07/14 05:08:51;;;;;;;4.05;1.70;;;20.10;67.50;;;19.59;51.81;97590.81;5038932;28;20418;-79
2022/07/14 05:11:17;;;;;;;4.00;1.67;;;20.20;67.00;;;19.70;50.20;97586.78;5039406;28;20403;-80
2022/07/14 05:13:43;;;;;;;3.03;1.50;;;20.30;65.30;;;19.79;49.88;97584.16;5062353;28;20406;-80
2022/07/14 05:16:09;;;;;;;3.65;1.77;;;20.40;65.10;;;19.88;49.13;97577.78;5051271;28;20401;-80
2022/07/14 05:18:35;;;;;;;3.03;1.73;;;20.50;64.10;;;19.97;49.42;97581.31;5050729;28;20412;-80
2022/07/14 05:21:02;;;;;;;3.00;1.50;;;20.60;64.30;;;20.08;50.19;97584.53;5040138;28;20403;-79
2022/07/14 05:23:28;;;;;;;2.28;1.58;;;20.70;64.90;;;20.16;50.73;97583.78;5030652;28;20909;-80
2022/07/14 05:25:54;;;;;;;1.80;1.43;;;20.80;65.50;;;20.23;51.24;97577.97;5030531;28;20533;-80
2022/07/14 05:28:20;;;;;;;3.77;1.37;;;20.90;66.30;;;20.30;51.73;97586.38;5030557;28;20761;-80
2022/07/14 05:30:46;;;;;;;4.13;1.73;;;20.90;66.80;;;20.37;51.80;97584.88;5021083;28;20964;-79
2022/07/14 05:33:12;;;;;;;4.30;1.40;;;21.00;66.90;;;20.44;51.29;97581.75;5028912;28;20410;-79
2022/07/14 05:35:38;;;;;;;3.00;1.67;;;21.10;66.60;;;20.50;50.87;97580.50;5029149;28;20417;-79
2022/07/14 05:38:05;;;;;;;2.10;1.43;;;21.10;66.10;;;20.56;50.56;97575.78;5029028;28;20436;-80
2022/07/14 05:40:31;;;;;;;1.92;1.35;;;21.20;65.70;;;20.64;50.53;97577.72;5029134;28;20921;-79
2022/07/14 05:42:57;;;;;;;2.47;1.50;;;21.20;65.70;;;20.68;50.56;97566.00;5029499;28;20419;-79
2022/07/14 05:45:23;;;;;;;3.75;1.60;;;21.30;65.70;;;20.75;49.89;97570.97;5030406;28;20908;-79
2022/07/14 05:47:49;;;;;;;2.20;1.38;;;21.30;65.10;;;20.83;49.41;97573.66;5030959;28;20418;-79
2022/07/14 05:50:15;;;;;;;2.00;1.30;;;21.40;64.40;;;20.87;49.29;97573.84;5029938;28;20414;-79
2022/07/14 05:52:43;;;;;;;4.22;1.38;;;21.50;64.30;;;20.94;49.87;97566.09;5046017;28;20411;-79
2022/07/14 05:55:10;;;;;;;2.07;1.43;;;21.50;65.00;;;20.99;50.40;97570.53;5030585;28;21124;-79
2022/07/14 05:57:36;;;;;;;2.10;1.20;;;21.60;65.70;;;21.02;50.61;97565.31;5030559;28;20896;-79
2022/07/14 06:00:03;;;;;;;2.67;1.50;;;21.60;65.90;;;21.07;50.80;97559.78;5030096;28;20414;-80
2022/07/14 06:02:29;;;;;;;1.50;1.23;;;21.70;66.00;;;21.13;50.67;97555.03;5030630;28;20517;-80
2022/07/14 06:04:55;;;;;;;2.22;1.30;;;21.70;66.20;;;21.19;51.08;97567.28;5030553;28;20999;-79
2022/07/14 06:07:21;;;;;;;2.85;1.48;;;21.80;66.50;;;21.23;51.54;97562.84;5031371;28;20406;-80
2022/07/14 06:09:49;;;;;;;3.97;1.48;;;21.80;66.70;;;21.29;51.73;97563.47;5027060;28;20418;-79
2022/07/14 06:12:16;;;;;;;3.47;1.42;;;21.80;67.20;;;21.37;52.02;97563.47;5028671;28;20486;-80
2022/07/14 06:14:43;;;;;;;2.05;1.25;;;21.90;67.70;;;21.45;51.91;97557.31;5025438;28;20434;-80
2022/07/14 06:17:09;;;;;;;2.37;1.40;;;22.00;67.80;;;21.53;51.83;97556.50;5029315;28;20406;-80
2022/07/14 06:19:35;;;;;;;2.53;1.23;;;22.10;67.60;;;21.63;51.56;97561.59;5027500;28;20821;-80
2022/07/14 06:22:05;;;;;;;3.03;1.38;;;22.20;67.40;;;21.71;51.86;97565.41;5030948;28;20403;-79
2022/07/14 06:24:31;;;;;;;1.52;1.20;;;22.20;67.70;;;21.81;51.78;97565.03;5030261;28;20439;-80
2022/07/14 06:26:57;;;;;;;4.60;2.20;;;22.30;67.70;;;21.92;51.44;97560.91;5045306;28;20908;-80
2022/07/14 06:29:24;;;;;;;2.85;1.88;;;22.40;68.00;;;22.02;51.93;97559.03;5029526;28;20406;-80
2022/07/14 06:31:55;;;;;;;4.22;2.35;;;22.50;67.90;;;22.08;51.69;97560.44;5029890;28;20915;-79
2022/07/14 06:34:21;;;;;;;7.18;2.80;;;22.60;67.70;;;22.14;51.31;97562.66;5031635;28;20465;-80
2022/07/14 06:36:47;;;;;;;3.43;1.90;;;22.60;67.20;;;22.25;50.74;97549.63;5031503;28;20399;-80
2022/07/14 06:39:14;;;;;;;4.67;1.90;;;22.70;66.70;;;22.39;47.71;97547.50;5034164;28;20518;-79
2022/07/14 06:41:40;;;;;;;3.75;1.30;;;22.90;63.20;;;22.54;45.84;97546.97;5031109;28;20503;-80
2022/07/14 06:44:06;;;;;;;1.52;1.00;;;23.00;61.10;;;22.85;41.22;97533.19;5029759;28;20919;-79
2022/07/14 06:46:34;;;;;;;1.48;1.00;;;23.30;56.40;;;22.96;42.03;97541.69;5029925;28;20910;-79
2022/07/14 06:49:00;;;;;;;2.17;0.82;;;23.40;56.90;;;23.08;42.09;97537.13;5030011;28;20458;-80
2022/07/14 06:51:26;;;;;;;3.97;1.20;;;23.50;56.70;;;23.17;41.93;97545.97;5030593;28;20949;-79
2022/07/14 06:53:53;;;;;;;2.33;1.10;;;23.60;56.60;;;23.37;40.72;97540.91;5029940;28;20472;-80
2022/07/14 06:56:19;;;;;;;2.17;1.13;;;23.80;56.00;;;23.47;40.90;97537.81;5029918;28;20456;-80
2022/07/14 06:58:45;;;;;;;1.70;1.08;;;23.90;55.40;;;23.57;41.06;97542.84;5029249;28;20404;-80
2022/07/14 07:01:11;;;;;;;3.35;1.30;;;24.00;55.60;;;23.74;39.38;97542.69;5045087;28;20414;-79
2022/07/14 07:03:39;;;;;;;2.10;0.98;;;24.20;54.10;;;23.92;37.28;97541.38;5029808;28;20465;-77
2022/07/14 07:08:49;;;;;;;2.85;1.23;;;24.50;52.60;;;24.14;38.54;97536.69;5029163;28;20413;-78
2022/07/14 07:11:15;;;;;;;1.30;1.08;;;24.50;52.60;;;24.32;37.60;97537.34;5030004;28;20411;-76
2022/07/14 07:13:41;;;;;;;1.63;1.02;;;24.60;51.90;;;24.38;37.83;97539.47;5029718;28;20410;-77
2022/07/14 07:16:08;;;;;;;0.93;0.82;;;24.80;52.00;;;24.45;37.62;97536.22;5029824;28;20771;-76
2022/07/14 07:18:35;;;;;;;1.52;1.10;;;24.80;52.00;;;24.53;38.77;97538.81;5029387;28;20422;-77
2022/07/14 07:21:03;;;;;;;5.25;1.13;;;24.90;52.90;;;24.61;36.33;97540.63;5029348;28;20418;-76
2022/07/14 07:23:32;;;;;;;2.85;1.08;;;25.00;50.70;;;24.87;34.64;97536.78;5044766;28;20450;-77
2022/07/14 07:25:58;;;;;;;2.50;1.10;;;25.20;48.80;;;24.97;35.14;97533.63;5029727;28;20495;-77
2022/07/14 07:28:24;;;;;;;2.35;1.08;;;25.30;49.30;;;25.11;35.14;97536.00;5022332;28;20418;-79
2022/07/14 07:30:50;;;;;;;5.10;1.23;;;25.40;49.00;;;25.10;35.24;97529.78;5029208;28;20426;-81
2022/07/14 07:33:16;;;;;;;4.07;1.20;;;25.50;49.20;;;25.23;32.59;97528.63;5029087;28;20407;-77
2022/07/14 07:35:45;;;;;;;1.60;1.20;;;25.60;46.50;;;25.26;33.60;97527.16;5029369;28;20734;-76
2022/07/14 07:38:12;;;;;;;1.05;0.85;;;25.60;47.10;;;25.28;33.88;97528.38;5028977;28;20793;-76
2022/07/14 07:40:38;;;;;;;5.77;1.27;;;25.60;47.40;;;25.50;33.37;97521.66;5029137;28;20945;-77
2022/07/14 07:43:04;;;;;;;2.30;1.10;;;25.80;47.00;;;25.52;33.84;97524.00;5029233;28;20472;-76
2022/07/14 07:45:30;;;;;;;1.58;1.10;;;25.90;47.40;;;25.72;32.48;97520.34;5029281;28;20411;-79
2022/07/14 07:47:56;;;;;;;2.30;1.13;;;26.00;46.30;;;25.72;33.71;97507.56;5029519;28;20456;-79
2022/07/14 07:50:22;;;;;;;1.20;1.10;;;26.10;47.40;;;25.74;34.08;97507.22;5031590;28;20407;-79
2022/07/14 07:52:48;;;;;;;2.75;1.23;;;26.10;47.60;;;25.82;33.69;97503.56;5033091;28;20415;-79
2022/07/14 07:55:16;;;;;;;1.30;1.10;;;26.20;47.70;;;25.93;33.96;97507.38;5033080;28;20900;-80
2022/07/14 07:57:43;;;;;;;4.03;1.13;;;26.20;47.80;;;26.10;32.25;97498.09;5039919;28;20418;-80
2022/07/14 08:00:11;;;;;;;4.53;1.38;;;26.50;46.30;;;26.08;32.04;97501.19;5041005;28;20912;-81
2022/07/14 08:02:45;;;;;;;3.47;1.17;;;26.50;45.80;;;26.15;31.94;97501.34;5033063;28;20506;-81
2022/07/14 08:05:11;;;;;;;5.03;1.30;;;26.60;45.50;;;26.18;32.19;97502.56;5032678;28;20426;-79
2022/07/14 08:07:37;;;;;;;3.83;1.63;;;26.60;45.90;;;26.35;32.13;97496.81;5032700;28;20411;-77
2022/07/14 08:10:04;;;;;;;1.40;1.03;;;26.60;45.90;;;26.36;32.49;97492.19;5032376;28;20406;-78
2022/07/14 08:12:31;;;;;;;13.43;2.70;;;26.70;46.30;;;26.44;33.35;97485.78;5033110;28;20422;-79
2022/07/14 08:14:57;;;;;;;2.50;1.10;;;26.70;47.20;;;26.45;33.63;97479.22;5033618;28;20414;-80
2022/07/14 08:17:23;;;;;;;2.72;1.20;;;26.80;47.20;;;26.50;33.67;97477.03;5033744;28;20410;-80
2022/07/14 08:19:50;;;;;;;5.22;1.40;;;26.90;47.40;;;26.61;33.02;97481.91;5035313;28;20411;-81
2022/07/14 08:22:22;;;;;;;5.65;1.38;;;27.00;46.90;;;26.77;31.56;97474.50;5037302;28;20407;-82
2022/07/14 08:24:48;;;;;;;3.90;1.13;;;27.00;45.60;;;26.79;31.57;97483.88;5036756;28;20419;-82
2022/07/14 08:27:14;;;;;;;1.83;1.20;;;27.20;44.90;;;26.81;31.82;97475.38;5034051;28;20454;-77
2022/07/14 08:29:42;;;;;;;5.55;1.60;;;27.20;45.30;;;26.91;32.17;97469.44;5047358;28;20406;-83
2022/07/14 08:32:08;;;;;;;5.22;1.25;;;27.30;45.60;;;26.92;31.46;97474.50;5033892;28;20404;-80
2022/07/14 08:34:34;;;;;;;2.38;1.10;;;27.30;45.20;;;27.18;30.21;97465.75;5032330;28;20486;-79
2022/07/14 08:37:00;;;;;;;6.47;1.40;;;27.50;43.80;;;27.28;29.93;97469.81;5032318;28;20490;-80
2022/07/14 08:39:26;;;;;;;5.30;1.47;;;27.60;43.40;;;27.15;31.10;97454.78;5031701;28;20911;-79
2022/07/14 08:41:56;;;;;;;3.27;1.20;;;27.60;44.30;;;27.11;31.56;97468.31;5031914;28;20407;-78
2022/07/14 08:44:24;;;;;;;1.40;1.10;;;27.40;45.20;;;27.09;31.09;97459.72;5031835;28;20423;-79
2022/07/14 08:46:52;;;;;;;2.90;1.30;;;27.50;44.50;;;27.34;29.88;97452.06;5031946;28;20407;-79
2022/07/14 08:49:19;;;;;;;3.38;1.30;;;27.60;43.60;;;27.37;30.24;97451.34;5031293;28;20400;-79
2022/07/14 08:51:45;;;;;;;2.53;1.17;;;27.70;43.80;;;27.35;30.06;97443.56;5033891;28;20426;-81
2022/07/14 08:54:11;;;;;;;2.90;1.20;;;27.70;43.30;;;27.42;31.12;97451.06;5031924;28;20403;-80
2022/07/14 08:56:39;;;;;;;2.20;1.10;;;27.70;44.30;;;27.74;30.63;97446.25;5032487;28;20486;-79
2022/07/14 08:59:06;;;;;;;3.40;1.40;;;27.90;43.90;;;27.78;30.73;97440.88;5034195;28;20403;-81
2022/07/14 09:01:32;;;;;;;3.90;1.30;;;28.10;44.00;;;27.86;30.87;97431.69;5032370;28;20835;-80
2022/07/14 09:03:59;;;;;;;3.45;1.40;;;28.20;44.40;;;27.93;31.31;97437.25;5031841;28;20429;-78
2022/07/14 09:06:52;;;;;;;3.28;1.15;;;28.20;45.00;;;27.96;29.28;97431.09;5031930;28;20904;-79
2022/07/14 09:09:20;;;;;;;1.35;1.10;;;28.30;42.70;;;28.15;27.52;97431.03;5031309;28;20486;-78
2022/07/14 09:11:55;;;;;;;1.48;1.20;;;28.50;40.80;;;28.27;29.07;97428.13;5031450;28;20437;-78
2022/07/14 09:14:21;;;;;;;3.90;1.50;;;28.50;42.50;;;28.56;26.47;97436.72;5031562;28;20411;-78
2022/07/14 09:16:47;;;;;;;3.97;1.30;;;28.80;39.40;;;28.78;25.71;97435.91;5031598;28;20414;-78
2022/07/14 09:19:16;;;;;;;1.80;1.00;;;29.00;38.60;;;28.78;25.92;97433.97;5030853;28;20403;-79
2022/07/14 09:21:46;;;;;;;2.47;1.03;;;29.10;38.90;;;28.93;26.22;97424.03;5031237;28;20976;-78
2022/07/14 09:24:16;;;;;;;1.83;1.10;;;29.20;39.10;;;29.07;25.58;97413.31;5031175;28;20502;-79
2022/07/14 09:26:45;;;;;;;4.90;1.23;;;29.40;38.40;;;29.12;26.37;97414.91;5031503;28;20403;-78
2022/07/14 09:29:17;;;;;;;2.80;1.20;;;29.40;39.10;;;29.29;27.15;97414.34;5030653;28;20413;-79
2022/07/14 09:31:44;;;;;;;1.30;1.20;;;29.50;39.50;;;29.31;27.00;97422.16;5031125;28;20476;-78
2022/07/14 09:34:26;;;;;;;1.15;1.05;;;29.60;39.80;;;29.26;26.49;97412.34;5031246;28;20427;-77
2022/07/14 09:36:52;;;;;;;3.08;1.30;;;29.60;39.30;;;29.38;25.22;97417.59;5031359;28;20395;-75
2022/07/14 09:39:18;;;;;;;2.35;1.13;;;29.60;38.10;;;29.40;26.61;97409.03;5030426;28;20403;-76
2022/07/14 09:41:50;;;;;;;2.25;1.48;;;29.70;39.40;;;29.59;25.51;97406.13;5031013;28;20465;-76
2022/07/14 09:44:18;;;;;;;2.63;0.93;;;29.80;38.50;;;29.75;25.46;97403.94;5056156;22;20429;-78
2022/07/14 09:46:50;;;;;;;5.40;1.10;;;30.00;38.20;;;29.83;24.83;97408.31;5049032;28;20500;-76
2022/07/14 09:49:19;;;;;;;1.52;1.10;;;30.10;37.10;;;29.80;23.28;97402.78;5042700;28;20470;-75
2022/07/14 09:51:55;;;;;;;1.70;1.10;;;30.20;35.60;;;29.92;23.77;97397.06;5050402;28;20397;-75
2022/07/14 09:54:47;;;;;;;3.77;1.10;;;30.20;35.90;;;29.90;24.38;97394.72;5032237;28;20972;-75
2022/07/14 09:57:25;;;;;;;6.50;1.15;;;30.20;36.70;;;30.07;23.56;97409.72;5050483;28;20539;-74
2022/07/14 09:59:57;;;;;;;2.30;1.37;;;30.30;35.70;;;29.98;23.67;97396.38;5049247;28;20488;-75
2022/07/14 10:02:29;;;;;;;6.03;1.45;;;30.30;36.10;;;30.07;24.20;97389.81;5032308;28;20408;-76
2022/07/14 10:05:07;;;;;;;3.97;1.60;;;30.30;36.60;;;30.01;22.74;97397.53;5050354;28;20504;-75
2022/07/14 10:07:38;;;;;;;2.78;1.40;;;30.30;35.20;;;30.17;22.97;97383.63;5049271;28;20436;-76
2022/07/14 10:10:07;;;;;;;9.52;1.50;;;30.50;35.20;;;30.31;23.29;97386.44;5049632;28;21025;-76
2022/07/14 10:12:34;;;;;;;3.70;1.20;;;30.50;35.80;;;30.40;23.31;97386.91;5049806;28;20946;-77
2022/07/14 10:15:04;;;;;;;4.45;1.17;;;30.70;35.70;;;30.49;22.57;97390.09;5050142;28;20398;-74
2022/07/14 10:17:37;;;;;;;5.55;1.25;;;30.80;35.00;;;30.67;22.52;97388.25;5050230;28;20398;-75
2022/07/14 10:20:08;;;;;;;1.65;1.30;;;31.00;34.60;;;30.97;22.25;97381.78;5049820;28;20751;-75
2022/07/14 10:22:37;;;;;;;4.97;1.30;;;31.20;34.90;;;31.12;22.86;97370.53;5050156;28;20482;-75
2022/07/14 10:25:06;;;;;;;1.40;1.05;;;31.30;34.90;;;31.24;23.37;97365.88;5050076;28;20425;-74
2022/07/14 10:27:32;;;;;;;1.48;1.08;;;31.40;36.00;;;31.47;24.33;97377.25;5050093;28;20883;-74
2022/07/14 10:29:58;;;;;;;2.15;1.10;;;31.60;37.00;;;31.83;21.80;97358.94;5049330;28;20406;-77